Time;durP1;ratioP1;P1;durP2;ratioP2;P2;SDS_P1;SDS_P2;PMS_P1;PMS_P2;Temp;Humidity;BMP_temperature;BMP_pressure;BME280_temperature;BME280_humidity;BME280_pressure;Samples;Min_cycle;Max_cycle;Signal;HPM_P1;HPM_P2
2021/12/07 00:00:54;;;;;;;42.60;23.10;;;;;;;-1.77;75.91;99862.81;102440;1324;138163;-67
2021/12/07 00:03:26;;;;;;;43.30;22.20;;;;;;;-1.80;75.83;99862.42;102690;1330;109105;-69
2021/12/07 00:05:58;;;;;;;40.70;22.50;;;;;;;-1.83;75.71;99865.63;103623;1324;140198;-68
2021/12/07 00:08:31;;;;;;;41.90;22.50;;;;;;;-1.87;75.95;99864.23;102892;1324;96656;-68
2021/12/07 00:11:04;;;;;;;41.70;23.10;;;;;;;-1.86;75.98;99863.90;101524;1327;111415;-68
2021/12/07 00:13:38;;;;;;;40.70;22.60;;;;;;;-1.85;76.05;99866.46;102919;1329;139175;-68
2021/12/07 00:16:11;;;;;;;43.20;22.40;;;;;;;-1.80;75.94;99866.34;102556;1324;107770;-69
2021/12/07 00:18:44;;;;;;;38.00;21.60;;;;;;;-1.77;76.00;99868.27;102893;1323;138421;-68
2021/12/07 00:21:18;;;;;;;41.30;23.20;;;;;;;-1.73;75.98;99866.43;102981;1324;97776;-68
2021/12/07 00:23:51;;;;;;;40.00;23.10;;;;;;;-1.71;75.81;99868.84;103114;1321;137881;-67
2021/12/07 00:26:41;;;;;;;42.80;23.40;;;;;;;-1.70;75.81;99876.34;103627;1318;109152;-68
2021/12/07 00:29:14;;;;;;;41.90;23.40;;;;;;;-1.72;75.51;99878.88;103440;1318;108820;-68
2021/12/07 00:31:52;;;;;;;40.60;22.80;;;;;;;-1.75;75.64;99880.39;103186;1320;137982;-68
2021/12/07 00:34:42;;;;;;;44.10;22.20;;;;;;;-1.77;75.58;99882.08;103104;1321;97954;-68
2021/12/07 00:37:14;;;;;;;46.10;22.40;;;;;;;-1.79;75.49;99889.52;103778;1321;138365;-68
2021/12/07 00:39:46;;;;;;;41.30;22.10;;;;;;;-1.81;75.44;99891.38;103403;1320;109120;-68
2021/12/07 00:42:18;;;;;;;39.10;21.90;;;;;;;-1.81;75.48;99894.79;102775;1321;138808;-69
2021/12/07 00:44:51;;;;;;;45.00;22.80;;;;;;;-1.79;75.55;99898.75;103034;1318;97879;-69
2021/12/07 00:47:24;;;;;;;41.40;21.70;;;;;;;-1.76;75.38;99901.69;103270;1325;97882;-68
2021/12/07 00:49:57;;;;;;;42.40;23.30;;;;;;;-1.76;75.48;99903.56;104249;1318;138432;-68
2021/12/07 00:52:29;;;;;;;41.00;21.90;;;;;;;-1.75;75.25;99906.13;104383;1318;109066;-69
2021/12/07 00:55:02;;;;;;;41.00;22.00;;;;;;;-1.72;75.07;99906.32;103883;1321;139624;-69
2021/12/07 00:57:34;;;;;;;38.10;21.50;;;;;;;-1.70;75.21;99903.11;103020;1322;97852;-69
2021/12/07 01:00:11;;;;;;;39.00;22.10;;;;;;;-1.71;75.35;99904.30;104210;1318;138056;-69
2021/12/07 01:02:43;;;;;;;39.90;22.20;;;;;;;-1.73;75.27;99909.73;103313;1320;112512;-68
2021/12/07 01:05:21;;;;;;;37.50;21.20;;;;;;;-1.73;75.09;99911.09;103836;1318;109701;-68
2021/12/07 01:08:11;;;;;;;38.50;21.70;;;;;;;-1.70;75.17;99915.55;103992;1324;139199;-69
2021/12/07 01:25:08;;;;;;;41.50;21.30;;;;;;;-1.88;74.87;99912.27;102836;1330;139630;-69
2021/12/07 01:27:40;;;;;;;38.70;22.00;;;;;;;-1.92;74.67;99914.27;103461;1328;96151;-69
2021/12/07 01:30:18;;;;;;;41.00;22.40;;;;;;;-1.93;74.96;99916.48;102831;1327;138875;-68
2021/12/07 01:33:11;;;;;;;39.20;21.70;;;;;;;-1.87;75.19;99917.73;103425;1331;109560;-69
2021/12/07 01:36:05;;;;;;;42.90;24.00;;;;;;;-1.80;75.09;99916.45;103264;1330;138536;-68
2021/12/07 01:42:52;;;;;;;40.10;22.10;;;;;;;-1.85;74.51;99912.64;102453;1337;96050;-69
2021/12/07 01:45:11;;;;;;;47.60;24.20;;;;;;;-1.95;74.48;99916.79;102022;1333;112224;-68
2021/12/07 01:47:55;;;;;;;45.80;22.60;;;;;;;-1.95;74.66;99916.28;102448;1330;109387;-68
2021/12/07 01:50:42;;;;;;;42.10;23.30;;;;;;;-1.91;75.04;99917.00;102218;1324;138116;-68
2021/12/07 02:01:43;;;;;;;44.10;22.90;;;;;;;-1.98;74.74;99899.19;103516;1324;139104;-69
2021/12/07 02:04:16;;;;;;;43.90;21.80;;;;;;;-2.01;74.75;99897.78;102713;1333;107288;-69
2021/12/07 02:06:48;;;;;;;41.70;22.20;;;;;;;-2.01;74.92;99896.24;103011;1325;138898;-68
2021/12/07 02:09:20;;;;;;;41.20;21.90;;;;;;;-1.95;75.18;99899.06;103379;1330;96096;-70
2021/12/07 02:11:59;;;;;;;38.10;20.40;;;;;;;-1.87;74.99;99901.54;102933;1326;112652;-69
2021/12/07 02:14:31;;;;;;;42.10;21.60;;;;;;;-1.85;74.90;99903.61;103394;1330;139831;-69
2021/12/07 02:17:06;;;;;;;38.80;21.40;;;;;;;-1.82;74.72;99908.42;103801;1327;107774;-69
2021/12/07 02:19:40;;;;;;;42.20;21.60;;;;;;;-1.79;74.73;99918.18;103389;1323;138231;-69
2021/12/07 02:22:13;;;;;;;45.80;22.80;;;;;;;-1.78;74.73;99925.02;102979;1320;97881;-68
2021/12/07 02:24:47;;;;;;;;;;;;;;;-1.79;74.65;99923.12;102844;1327;137936;-68
2021/12/07 02:27:20;;;;;;;46.60;23.30;;;;;;;-1.82;74.60;99927.48;103865;1323;109359;-69
2021/12/07 02:29:52;;;;;;;46.20;24.50;;;;;;;-1.84;74.67;99932.59;103782;1327;108897;-68
2021/12/07 02:32:24;;;;;;;42.90;23.00;;;;;;;-1.86;74.86;99929.50;102907;1327;138189;-69
2021/12/07 02:34:58;;;;;;;44.00;22.70;;;;;;;-1.90;74.53;99924.52;103786;1324;96434;-69
2021/12/07 02:37:33;;;;;;;42.70;22.00;;;;;;;-1.95;74.62;99916.27;103188;1321;140770;-68
2021/12/07 02:40:10;;;;;;;44.10;22.20;;;;;;;-1.97;74.70;99915.57;103076;1326;108300;-68
2021/12/07 02:42:43;;;;;;;44.50;21.40;;;;;;;-1.95;74.85;99911.85;103945;1326;139443;-68
2021/12/07 02:45:15;;;;;;;45.60;21.80;;;;;;;-1.92;74.78;99911.88;104020;1327;96756;-69
2021/12/07 02:47:48;;;;;;;41.20;21.30;;;;;;;-1.87;75.01;99911.94;104118;1322;95999;-69
2021/12/07 02:50:21;;;;;;;45.10;22.60;;;;;;;-1.84;74.58;99912.48;102844;1324;138044;-68
2021/12/07 02:52:53;;;;;;;40.80;21.80;;;;;;;-1.81;74.65;99914.73;102924;1320;109068;-68
2021/12/07 02:55:25;;;;;;;40.90;22.10;;;;;;;-1.80;74.47;99916.95;102683;1322;137970;-68
2021/12/07 02:57:57;;;;;;;42.40;22.60;;;;;;;-1.81;74.57;99913.20;102875;1327;97889;-69
2021/12/07 03:00:37;;;;;;;44.00;23.00;;;;;;;-1.79;74.68;99913.57;102906;1321;138028;-69
2021/12/07 03:03:12;;;;;;;47.50;24.90;;;;;;;-1.78;74.68;99911.72;104181;1320;112569;-69
2021/12/07 03:05:53;;;;;;;45.80;23.80;;;;;;;-1.78;74.62;99904.39;103968;1322;109020;-68
2021/12/07 03:26:01;;;;;;;39.10;21.60;;;;;;;-1.88;74.62;99903.58;103675;1324;139015;-69
2021/12/07 03:28:35;;;;;;;39.50;21.30;;;;;;;-1.87;74.53;99901.71;104134;1320;96403;-69
2021/12/07 03:31:09;;;;;;;42.00;22.70;;;;;;;-1.85;74.55;99905.64;103454;1320;140176;-69
2021/12/07 03:33:41;;;;;;;41.70;23.10;;;;;;;-1.80;74.64;99903.15;103214;1329;108991;-69
2021/12/07 03:36:14;;;;;;;45.90;22.30;;;;;;;-1.78;74.66;99906.61;103566;1321;138152;-68
2021/12/07 03:38:47;;;;;;;47.60;24.60;;;;;;;-1.75;74.61;99905.27;103576;1323;97870;-69
2021/12/07 03:41:20;;;;;;;48.00;24.70;;;;;;;-1.73;74.62;99903.59;103382;1321;96864;-68
2021/12/07 03:43:52;;;;;;;47.40;24.30;;;;;;;-1.74;74.64;99906.47;103210;1322;138261;-68
2021/12/07 03:46:25;;;;;;;45.00;22.90;;;;;;;-1.77;74.48;99904.39;103171;1327;109119;-69
2021/12/07 03:48:57;;;;;;;46.70;23.20;;;;;;;-1.85;74.41;99907.87;103903;1322;139392;-69
2021/12/07 03:51:30;;;;;;;44.40;22.80;;;;;;;-1.87;74.40;99905.63;103960;1320;96304;-68
2021/12/07 03:54:02;;;;;;;46.30;22.90;;;;;;;-1.90;74.57;99903.55;103567;1325;97866;-69
2021/12/07 03:56:35;;;;;;;43.00;21.90;;;;;;;-1.91;74.68;99907.63;102858;1325;138181;-69
2021/12/07 03:59:07;;;;;;;41.80;20.60;;;;;;;-1.90;74.68;99907.80;103803;1321;109151;-68
2021/12/07 04:01:39;;;;;;;43.10;20.90;;;;;;;-1.88;74.68;99910.05;104014;1320;139526;-69
2021/12/07 04:04:12;;;;;;;39.60;20.10;;;;;;;-1.87;74.56;99916.20;104171;1320;95987;-69
2021/12/07 04:06:44;;;;;;;40.20;20.00;;;;;;;-1.89;74.35;99916.85;103879;1319;138178;-67
2021/12/07 04:09:17;;;;;;;38.70;20.00;;;;;;;-1.92;74.44;99920.91;103433;1327;112545;-68
2021/12/07 04:11:50;;;;;;;43.90;20.70;;;;;;;-1.90;74.67;99922.29;103789;1324;109041;-69
2021/12/07 04:14:22;;;;;;;40.80;20.50;;;;;;;-1.89;74.52;99923.84;102918;1321;137948;-67
2021/12/07 04:16:55;;;;;;;45.10;21.60;;;;;;;-1.92;74.18;99930.80;104053;1321;96248;-68
2021/12/07 04:19:27;;;;;;;42.70;21.70;;;;;;;-1.95;74.43;99929.73;102859;1320;137821;-68
2021/12/07 04:22:00;;;;;;;44.80;22.20;;;;;;;-1.99;74.24;99935.79;103126;1320;112391;-68
2021/12/07 04:24:31;;;;;;;44.00;22.80;;;;;;;-2.00;74.38;99941.40;103726;1321;138085;-68
2021/12/07 04:27:05;;;;;;;47.90;22.20;;;;;;;-2.03;74.42;99942.21;102978;1322;108882;-68
2021/12/07 04:29:37;;;;;;;44.60;21.20;;;;;;;-2.05;74.44;99943.55;104084;1320;96200;-68
2021/12/07 04:32:09;;;;;;;41.00;20.80;;;;;;;-2.05;74.83;99948.84;103228;1326;138485;-68
2021/12/07 04:34:41;;;;;;;44.00;20.90;;;;;;;-2.07;74.53;99946.77;104237;1320;114481;-68
2021/12/07 04:37:13;;;;;;;41.10;21.40;;;;;;;-2.09;74.57;99946.73;104159;1316;138516;-68
2021/12/07 04:39:46;;;;;;;42.60;20.50;;;;;;;-2.08;74.77;99946.59;104256;1320;108172;-69
2021/12/07 04:42:18;;;;;;;39.20;20.20;;;;;;;-2.01;74.92;99948.88;103403;1324;138868;-68
2021/12/07 04:44:54;;;;;;;47.40;23.90;;;;;;;-1.93;74.88;99948.16;103404;1321;97902;-69
2021/12/07 04:47:35;;;;;;;47.50;22.60;;;;;;;-1.87;75.06;99945.34;103971;1316;111266;-68
2021/12/07 04:50:32;;;;;;;48.00;23.40;;;;;;;-1.81;74.74;99939.27;103225;1316;137928;-68
2021/12/07 04:58:52;;;;;;;45.90;23.60;;;;;;;-1.72;74.50;99935.30;103205;1331;96772;-68
2021/12/07 05:01:25;;;;;;;52.20;25.00;;;;;;;-1.76;74.34;99939.35;102067;1327;138166;-68
2021/12/07 05:04:03;;;;;;;55.40;25.20;;;;;;;-1.83;74.24;99943.85;103058;1327;108833;-69
2021/12/07 05:06:40;;;;;;;57.40;27.30;;;;;;;-1.88;74.46;99950.09;102521;1327;138235;-69
2021/12/07 05:09:31;;;;;;;53.20;24.80;;;;;;;-1.90;74.42;99948.36;102183;1327;97938;-68
2021/12/07 05:15:15;;;;;;;51.30;24.00;;;;;;;-1.90;74.49;99954.34;103093;1329;113072;-69
2021/12/07 05:18:03;;;;;;;51.70;24.20;;;;;;;-1.86;74.57;99964.60;102481;1329;109154;-68
2021/12/07 05:37:39;;;;;;;51.40;23.30;;;;;;;-1.82;74.43;99969.75;103240;1330;109131;-69
2021/12/07 05:37:55;;;;;;;49.80;23.40;;;;;;;-1.82;74.26;99972.48;102879;1324;138198;-69
2021/12/07 05:40:30;;;;;;;53.20;25.50;;;;;;;-1.85;74.25;99976.36;102353;1327;97905;-68
2021/12/07 05:43:03;;;;;;;48.70;24.90;;;;;;;-1.87;74.36;99979.08;102268;1328;137979;-69
2021/12/07 05:45:39;;;;;;;49.50;23.30;;;;;;;-1.89;74.39;99980.08;102716;1324;108521;-68
2021/12/07 05:48:11;;;;;;;52.40;24.90;;;;;;;-1.90;74.41;99978.70;103396;1325;108914;-69
2021/12/07 05:50:44;;;;;;;54.00;24.70;;;;;;;-1.91;74.35;99975.28;102955;1323;138810;-68
2021/12/07 05:53:17;;;;;;;54.50;25.00;;;;;;;-1.92;74.31;99973.05;102950;1320;97877;-68
2021/12/07 05:55:49;;;;;;;46.20;23.30;;;;;;;-1.92;74.39;99971.35;103398;1325;139588;-68
2021/12/07 05:58:21;;;;;;;48.00;22.60;;;;;;;-1.90;74.35;99971.55;103235;1319;108855;-69
2021/12/07 06:00:57;;;;;;;47.80;23.40;;;;;;;-1.84;74.38;99972.47;103021;1318;138212;-69
2021/12/07 06:03:30;;;;;;;46.30;23.20;;;;;;;-1.81;74.48;99965.85;103086;1320;97927;-70
2021/12/07 06:06:04;;;;;;;48.40;23.70;;;;;;;-1.84;74.22;99965.31;103368;1325;97896;-69
2021/12/07 06:08:36;;;;;;;53.20;24.40;;;;;;;-1.87;74.31;99964.92;103277;1320;137926;-68
2021/12/07 06:11:08;;;;;;;50.10;24.20;;;;;;;-1.88;74.39;99965.94;102990;1321;109154;-68
2021/12/07 06:13:40;;;;;;;48.50;22.90;;;;;;;-1.93;74.16;99966.39;103554;1321;137980;-70
2021/12/07 06:16:15;;;;;;;48.80;23.20;;;;;;;-1.98;74.60;99969.38;103190;1317;98344;-67
2021/12/07 06:18:47;;;;;;;50.10;23.80;;;;;;;-1.99;74.63;99974.80;102867;1318;139690;-72
2021/12/07 06:21:20;;;;;;;47.90;22.90;;;;;;;-1.99;74.47;99977.02;102900;1323;113067;-69
2021/12/07 06:23:52;;;;;;;48.10;23.10;;;;;;;-1.99;74.56;99975.31;102948;1321;109188;-68
2021/12/07 06:26:24;;;;;;;52.20;23.50;;;;;;;-2.00;74.68;99977.88;102848;1321;138032;-69
2021/12/07 06:28:56;;;;;;;48.80;24.00;;;;;;;-2.00;74.53;99978.03;102912;1319;98722;-69
2021/12/07 06:31:28;;;;;;;49.70;23.70;;;;;;;-1.97;74.60;99975.89;102766;1323;138469;-69
2021/12/07 06:34:01;;;;;;;47.90;23.00;;;;;;;-1.94;74.48;99978.83;102949;1320;111703;-71
2021/12/07 06:36:33;;;;;;;42.70;21.70;;;;;;;-1.90;74.40;99981.26;102881;1320;111127;-71
2021/12/07 06:39:06;;;;;;;41.00;21.10;;;;;;;-1.86;74.44;99982.84;102780;1319;138301;-69
2021/12/07 06:41:38;;;;;;;47.00;22.00;;;;;;;-1.83;74.71;99987.65;104124;1316;97115;-70
2021/12/07 06:44:11;;;;;;;42.40;21.20;;;;;;;-1.82;74.39;99988.67;103161;1322;137755;-70
2021/12/07 06:46:44;;;;;;;47.20;23.30;;;;;;;-1.86;74.14;99989.48;102830;1320;112857;-70
2021/12/07 06:49:17;;;;;;;48.50;23.00;;;;;;;-1.88;74.26;99986.21;102459;1324;138215;-68
2021/12/07 06:51:50;;;;;;;46.80;23.80;;;;;;;-1.87;74.15;99989.13;102607;1322;109016;-70
2021/12/07 06:54:22;;;;;;;49.00;23.30;;;;;;;-1.90;74.13;99991.81;103724;1320;95860;-71
2021/12/07 06:56:55;;;;;;;50.60;24.60;;;;;;;-1.94;74.02;100000.63;102872;1321;138387;-69
2021/12/07 06:59:27;;;;;;;53.10;24.60;;;;;;;-1.99;74.11;99999.34;102954;1319;112472;-70
2021/12/07 07:01:59;;;;;;;49.10;24.10;;;;;;;-2.07;74.11;99994.64;102784;1321;138991;-71
2021/12/07 07:04:31;;;;;;;55.80;25.60;;;;;;;-2.13;74.14;99997.29;102777;1320;108592;-69
2021/12/07 07:07:03;;;;;;;52.50;24.10;;;;;;;-2.15;74.40;99997.75;102695;1324;138948;-70
2021/12/07 07:09:35;;;;;;;48.90;23.50;;;;;;;-2.17;74.39;99998.89;104270;1319;95948;-70
2021/12/07 07:12:09;;;;;;;42.30;23.40;;;;;;;-2.17;74.35;99999.24;104123;1320;112296;-70
2021/12/07 07:14:40;;;;;;;47.40;23.10;;;;;;;-2.18;74.28;100000.60;103003;1326;138607;-71
2021/12/07 07:17:13;;;;;;;45.80;22.50;;;;;;;-2.16;74.73;100002.34;104195;1321;109300;-70
2021/12/07 07:19:48;;;;;;;48.90;23.90;;;;;;;-2.12;74.98;100004.45;103482;1324;139381;-71
2021/12/07 07:22:20;;;;;;;52.40;25.50;;;;;;;-2.12;74.46;100003.27;104140;1321;96113;-71
2021/12/07 07:24:52;;;;;;;49.20;24.40;;;;;;;-2.12;74.71;100003.94;103040;1320;138015;-71
2021/12/07 07:27:28;;;;;;;53.90;24.60;;;;;;;-2.12;74.61;100008.19;104231;1321;109075;-70
2021/12/07 07:30:00;;;;;;;51.30;24.20;;;;;;;-2.13;74.26;100012.27;104219;1321;109540;-71
2021/12/07 07:32:32;;;;;;;48.10;23.80;;;;;;;-2.15;74.44;100014.11;104100;1314;138212;-71
2021/12/07 07:35:06;;;;;;;43.10;21.80;;;;;;;-2.20;74.48;100016.75;103114;1320;97890;-69
2021/12/07 07:37:38;;;;;;;40.20;21.60;;;;;;;-2.22;74.28;100015.70;104067;1320;138848;-69
2021/12/07 07:40:15;;;;;;;40.30;20.20;;;;;;;-2.19;74.49;100019.15;104139;1320;109299;-71
2021/12/07 07:42:47;;;;;;;38.40;20.20;;;;;;;-2.14;74.49;100025.53;103935;1321;138604;-71
2021/12/07 07:45:51;;;;;;;36.60;19.40;;;;;;;-2.07;74.54;100024.96;103915;1316;96011;-68
2021/12/07 07:48:24;;;;;;;36.20;19.40;;;;;;;-2.00;74.39;100022.49;103282;1321;96063;-69
2021/12/07 07:50:56;;;;;;;36.00;18.70;;;;;;;-1.93;74.28;100027.23;103766;1323;139054;-70
2021/12/07 07:53:28;;;;;;;34.50;17.50;;;;;;;-1.94;73.56;100027.39;103067;1326;108970;-69
2021/12/07 07:56:03;;;;;;;31.40;15.50;;;;;;;-1.99;73.11;100029.84;104088;1321;138621;-71
2021/12/07 07:58:35;;;;;;;28.00;15.60;;;;;;;-2.04;73.32;100032.16;104332;1318;96144;-71
2021/12/07 08:01:08;;;;;;;34.50;17.70;;;;;;;-2.05;73.26;100031.98;103411;1321;140075;-71
2021/12/07 08:03:41;;;;;;;28.10;15.50;;;;;;;-2.05;73.33;100028.91;104314;1321;112439;-72
2021/12/07 08:06:13;;;;;;;29.80;15.90;;;;;;;-2.07;73.24;100033.48;103750;1321;108918;-70
2021/12/07 08:08:45;;;;;;;27.00;14.70;;;;;;;-2.08;73.28;100036.19;104111;1315;139415;-70
2021/12/07 08:11:18;;;;;;;26.10;14.10;;;;;;;-2.10;73.24;100039.73;103759;1318;97888;-70
2021/12/07 08:13:57;;;;;;;28.70;14.70;;;;;;;-2.07;72.96;100039.10;102874;1320;138757;-69
2021/12/07 08:16:31;;;;;;;26.60;13.90;;;;;;;-2.03;72.88;100035.05;102697;1322;112568;-71
2021/12/07 08:19:03;;;;;;;28.80;15.40;;;;;;;-2.01;72.80;100037.64;102765;1321;138485;-70
2021/12/07 08:21:36;;;;;;;30.40;15.90;;;;;;;-2.03;72.67;100037.62;102890;1321;108932;-69
2021/12/07 08:24:08;;;;;;;29.80;15.60;;;;;;;-2.06;72.91;100044.05;102979;1318;97938;-71
2021/12/07 08:26:41;;;;;;;28.00;16.60;;;;;;;-2.05;72.53;100047.98;102878;1318;137947;-69
2021/12/07 08:29:13;;;;;;;31.60;17.50;;;;;;;-2.08;72.13;100051.34;102918;1321;112784;-69
2021/12/07 08:31:45;;;;;;;36.70;17.90;;;;;;;-2.15;72.31;100053.96;102889;1321;138266;-71
2021/12/07 08:34:17;;;;;;;30.80;17.00;;;;;;;-2.21;72.48;100055.39;103015;1318;108207;-71
2021/12/07 08:36:50;;;;;;;31.90;17.10;;;;;;;-2.21;72.85;100057.45;102768;1318;139871;-71
2021/12/07 08:39:22;;;;;;;33.70;18.10;;;;;;;-2.21;72.91;100064.25;104321;1318;95821;-69
2021/12/07 08:41:54;;;;;;;35.80;18.90;;;;;;;-2.22;72.95;100067.98;104273;1318;112758;-69
2021/12/07 08:44:26;;;;;;;37.40;20.10;;;;;;;-2.20;73.01;100069.53;103534;1318;139082;-70
2021/12/07 08:46:58;;;;;;;40.20;20.20;;;;;;;-2.16;72.96;100075.57;102904;1324;109269;-67
2021/12/07 08:49:30;;;;;;;41.40;20.70;;;;;;;-2.11;73.20;100075.84;102831;1320;138284;-70
2021/12/07 08:52:03;;;;;;;40.30;21.70;;;;;;;-2.07;73.00;100074.36;102925;1321;97900;-70
2021/12/07 08:59:38;;;;;;;44.20;22.20;;;;;;;-2.06;73.18;100075.73;103428;1322;112531;-69
2021/12/07 09:00:16;;;;;;;50.40;25.10;;;;;;;-1.99;73.48;100074.65;102548;1327;108861;-69
2021/12/07 09:02:48;;;;;;;44.00;22.20;;;;;;;-1.97;73.15;100075.04;102275;1324;138378;-69
2021/12/07 09:05:20;;;;;;;42.50;21.80;;;;;;;-1.95;73.17;100076.95;102264;1324;98199;-69
2021/12/07 09:07:53;;;;;;;38.40;20.00;;;;;;;-1.93;72.93;100074.09;102178;1323;139870;-68
2021/12/07 09:10:25;;;;;;;36.80;19.30;;;;;;;-1.88;72.77;100077.39;102249;1323;108965;-69
2021/12/07 09:12:57;;;;;;;35.60;19.40;;;;;;;-1.81;72.81;100080.03;102301;1328;106979;-69
2021/12/07 09:15:29;;;;;;;37.60;20.10;;;;;;;-1.71;72.87;100084.63;102151;1323;139879;-69
2021/12/07 09:18:02;;;;;;;40.80;23.10;;;;;;;-1.64;72.44;100086.59;102317;1324;97933;-69
2021/12/07 09:20:34;;;;;;;37.20;19.50;;;;;;;-1.60;72.49;100087.87;102196;1324;138299;-70
2021/12/07 09:23:06;;;;;;;32.30;18.30;;;;;;;-1.54;72.44;100088.63;102245;1324;109240;-71
2021/12/07 09:25:39;;;;;;;37.50;19.50;;;;;;;-1.54;72.13;100091.00;103009;1323;138636;-68
2021/12/07 09:28:12;;;;;;;33.00;18.50;;;;;;;-1.55;71.97;100094.58;103368;1324;97968;-67
2021/12/07 09:30:50;;;;;;;29.40;16.60;;;;;;;-1.59;71.70;100086.52;102244;1324;98339;-67
2021/12/07 09:33:25;;;;;;;28.40;15.90;;;;;;;-1.66;71.70;100082.13;103267;1327;138342;-68
2021/12/07 09:35:58;;;;;;;26.00;14.70;;;;;;;-1.69;71.83;100080.73;102784;1326;109364;-69
2021/12/07 09:38:30;;;;;;;29.20;16.00;;;;;;;-1.68;71.94;100080.74;103667;1324;138211;-69
2021/12/07 09:41:05;;;;;;;30.70;15.90;;;;;;;-1.67;71.75;100078.54;104234;1317;96166;-68
2021/12/07 09:43:38;;;;;;;31.20;15.80;;;;;;;-1.66;71.72;100079.56;103788;1316;139990;-69
2021/12/07 09:46:13;;;;;;;27.50;14.70;;;;;;;-1.63;72.01;100077.39;104085;1320;112466;-69
2021/12/07 09:48:46;;;;;;;29.20;14.00;;;;;;;-1.59;72.14;100074.24;103556;1321;108847;-68
2021/12/07 09:51:26;;;;;;;24.50;13.80;;;;;;;-1.52;71.90;100074.66;103774;1321;138944;-69
2021/12/07 09:54:00;;;;;;;27.00;14.30;;;;;;;-1.45;71.75;100071.17;103643;1317;97873;-69
2021/12/07 09:56:33;;;;;;;26.70;15.50;;;;;;;-1.38;71.50;100071.45;102883;1321;137967;-68
2021/12/07 09:59:08;;;;;;;24.90;14.60;;;;;;;-1.31;71.59;100071.02;103024;1318;112641;-68
2021/12/07 10:01:42;;;;;;;26.10;14.80;;;;;;;-1.27;71.52;100068.86;102854;1319;138610;-68
2021/12/07 10:04:16;;;;;;;24.20;13.80;;;;;;;-1.22;71.38;100071.15;104203;1321;107932;-68
2021/12/07 10:06:52;;;;;;;22.30;13.10;;;;;;;-1.19;71.35;100064.01;102899;1318;97941;-68
2021/12/07 10:09:24;;;;;;;21.60;13.30;;;;;;;-1.21;71.14;100064.85;102912;1318;137864;-68
2021/12/07 10:11:57;;;;;;;24.10;14.10;;;;;;;-1.24;71.13;100068.40;102944;1318;112508;-68
2021/12/07 10:14:39;;;;;;;26.00;14.20;;;;;;;-1.28;70.81;100069.20;102904;1318;138623;-69
2021/12/07 10:17:12;;;;;;;26.20;14.80;;;;;;;-1.36;70.25;100067.55;102864;1321;108504;-71
2021/12/07 10:19:45;;;;;;;25.10;14.70;;;;;;;-1.45;70.44;100064.88;102778;1321;138391;-69
2021/12/07 10:22:21;;;;;;;24.00;13.70;;;;;;;-1.48;70.57;100060.73;104251;1317;96124;-71
2021/12/07 10:24:56;;;;;;;29.10;15.70;;;;;;;-1.47;71.10;100059.73;103466;1317;111116;-70
2021/12/07 10:27:36;;;;;;;25.50;14.50;;;;;;;-1.48;70.97;100059.02;102806;1317;138870;-69
2021/12/07 10:30:18;;;;;;;26.90;15.30;;;;;;;-1.51;71.12;100060.17;103541;1318;108917;-69
2021/12/07 10:33:01;;;;;;;24.10;13.40;;;;;;;-1.50;71.34;100057.64;103024;1321;140890;-70
2021/12/07 10:35:35;;;;;;;27.90;14.50;;;;;;;-1.44;71.57;100052.42;102914;1321;97852;-69
2021/12/07 10:38:15;;;;;;;29.00;15.90;;;;;;;-1.37;71.26;100055.95;103978;1320;138177;-70
2021/12/07 10:41:01;;;;;;;29.00;16.60;;;;;;;-1.26;71.25;100051.30;104150;1320;109053;-69
2021/12/07 10:43:52;;;;;;;27.80;15.90;;;;;;;-1.19;70.75;100047.46;103219;1321;140150;-68
2021/12/07 10:46:44;;;;;;;28.10;16.00;;;;;;;-1.16;70.86;100046.30;102971;1321;97885;-69
2021/12/07 10:49:41;;;;;;;29.60;17.50;;;;;;;-1.09;71.20;100046.73;102740;1320;137254;-68
2021/12/07 10:52:21;;;;;;;35.60;19.90;;;;;;;-1.01;70.91;100050.06;102910;1320;112231;-68
2021/12/07 10:55:00;;;;;;;33.30;19.80;;;;;;;-0.97;71.04;100056.93;102975;1317;109608;-68
2021/12/07 10:57:34;;;;;;;37.70;20.60;;;;;;;-0.93;70.95;100054.23;102844;1321;138456;-69
2021/12/07 11:00:16;;;;;;;35.40;20.00;;;;;;;-0.89;70.66;100050.36;104246;1318;97129;-69
2021/12/07 11:02:53;;;;;;;36.90;20.80;;;;;;;-0.84;70.59;100050.43;104139;1320;139102;-70
2021/12/07 11:05:29;;;;;;;36.10;20.60;;;;;;;-0.78;70.54;100050.65;103009;1321;112588;-69
2021/12/07 11:08:03;;;;;;;37.30;20.60;;;;;;;-0.74;70.23;100048.46;102728;1318;138154;-69
2021/12/07 11:10:39;;;;;;;34.20;20.40;;;;;;;-0.73;70.02;100045.06;102954;1321;108992;-68
2021/12/07 11:13:15;;;;;;;35.70;20.10;;;;;;;-0.73;69.76;100045.05;102844;1321;97855;-68
2021/12/07 11:15:50;;;;;;;;;;;;;;;-0.70;70.22;100042.38;102808;1321;137737;-69
2021/12/07 11:18:27;;;;;;;33.80;19.70;;;;;;;-0.55;70.19;100042.01;102913;1320;112653;-68
2021/12/07 11:21:02;;;;;;;34.00;19.50;;;;;;;-0.39;70.52;100038.55;102838;1318;138242;-69
2021/12/07 11:23:37;;;;;;;38.50;21.70;;;;;;;-0.20;70.67;100038.55;102848;1321;109060;-68
2021/12/07 11:31:56;;;;;;;34.90;19.20;;;;;;;0.76;69.75;100044.09;104234;1318;138651;-68
2021/12/07 11:34:28;;;;;;;;;;;;;;;1.06;69.40;100035.98;103913;1321;109006;-67
2021/12/07 11:37:05;;;;;;;27.20;15.30;;;;;;;1.31;68.97;100036.05;103612;1318;109014;-68
2021/12/07 11:39:46;;;;;;;26.70;16.40;;;;;;;1.51;67.96;100031.96;102925;1325;137992;-69
2021/12/07 11:42:21;;;;;;;29.60;16.30;;;;;;;1.56;67.12;100043.61;102869;1321;97850;-68
2021/12/07 11:44:58;;;;;;;32.40;17.80;;;;;;;1.57;66.97;100044.48;102878;1322;137791;-68
2021/12/07 11:47:34;;;;;;;29.30;17.20;;;;;;;1.55;66.31;100047.05;104248;1321;108986;-69
2021/12/07 11:50:17;;;;;;;29.10;17.10;;;;;;;1.45;65.96;100052.86;103249;1318;138146;-68
2021/12/07 11:52:52;;;;;;;32.20;17.90;;;;;;;1.33;66.15;100060.90;102896;1320;97996;-68
2021/12/07 11:55:25;;;;;;;30.90;18.80;;;;;;;1.23;66.27;100061.89;104147;1321;96214;-67
2021/12/07 11:57:57;;;;;;;31.00;17.90;;;;;;;1.11;66.08;100064.61;103311;1325;111428;-69
2021/12/07 12:00:35;;;;;;;34.40;18.80;;;;;;;0.99;66.04;100077.05;103908;1317;108580;-69
2021/12/07 12:03:09;;;;;;;30.90;18.00;;;;;;;0.83;66.21;100075.27;103264;1324;139305;-69
2021/12/07 12:05:45;;;;;;;32.30;18.90;;;;;;;0.64;66.09;100080.14;104326;1319;95836;-69
2021/12/07 12:08:19;;;;;;;33.30;20.10;;;;;;;0.48;66.36;100080.40;104091;1324;139614;-69
2021/12/07 12:10:59;;;;;;;39.90;21.00;;;;;;;0.30;66.21;100078.23;104086;1321;112226;-69
2021/12/07 12:13:42;;;;;;;35.80;20.30;;;;;;;0.13;66.43;100083.59;103103;1320;106076;-68
2021/12/07 12:16:22;;;;;;;40.20;20.80;;;;;;;0.04;67.04;100082.66;104138;1320;138365;-69
2021/12/07 12:19:20;;;;;;;34.60;21.50;;;;;;;-0.05;67.22;100082.77;103078;1320;97940;-68
2021/12/07 12:21:59;;;;;;;40.10;21.50;;;;;;;-0.15;67.46;100084.23;103259;1321;138858;-68
2021/12/07 12:24:38;;;;;;;41.60;21.70;;;;;;;-0.21;67.68;100092.17;103844;1321;111585;-67
2021/12/07 12:27:15;;;;;;;36.80;19.90;;;;;;;-0.26;67.70;100092.84;103285;1320;139121;-68
2021/12/07 12:29:52;;;;;;;35.00;18.70;;;;;;;-0.31;67.33;100088.88;102874;1321;109929;-68
2021/12/07 12:32:28;;;;;;;;;;;;;;;-0.35;67.63;100090.53;102598;1321;139977;-68
2021/12/07 12:35:01;;;;;;;33.80;18.30;;;;;;;-0.41;67.80;100094.90;104138;1321;96139;-69
2021/12/07 12:37:34;;;;;;;38.00;20.20;;;;;;;-0.49;67.56;100093.98;103419;1320;112667;-68
2021/12/07 12:40:09;;;;;;;36.80;20.00;;;;;;;-0.52;67.82;100094.81;102760;1320;138316;-68
2021/12/07 12:42:43;;;;;;;37.40;20.00;;;;;;;-0.57;67.74;100097.98;103269;1320;109264;-68
2021/12/07 12:45:20;;;;;;;35.40;20.90;;;;;;;-0.62;67.97;100098.63;102710;1317;138376;-68
2021/12/07 12:48:03;;;;;;;38.60;21.00;;;;;;;-0.67;67.78;100097.40;102867;1317;97930;-68
2021/12/07 12:50:46;;;;;;;38.70;21.10;;;;;;;-0.74;67.99;100094.91;102745;1320;138424;-68
2021/12/07 12:53:21;;;;;;;38.70;20.30;;;;;;;-0.81;68.00;100094.32;104126;1320;108099;-68